sensor_id;sensor_type;location;lat;lon;timestamp;P1;durP1;ratioP1;P2;durP2;ratioP2
4553;SDS011;2289;48.316;15.174;2024-01-07T00:02:09;1.80;;;1.70;;
4553;SDS011;2289;48.316;15.174;2024-01-07T00:04:39;1.97;;;1.87;;
4553;SDS011;2289;48.316;15.174;2024-01-07T00:07:08;1.80;;;1.70;;
4553;SDS011;2289;48.316;15.174;2024-01-07T00:09:37;2.27;;;2.17;;
4553;SDS011;2289;48.316;15.174;2024-01-07T00:12:09;2.03;;;1.87;;
4553;SDS011;2289;48.316;15.174;2024-01-07T00:14:38;1.77;;;1.67;;
4553;SDS011;2289;48.316;15.174;2024-01-07T00:17:07;2.60;;;2.17;;
4553;SDS011;2289;48.316;15.174;2024-01-07T00:19:38;1.67;;;1.57;;
4553;SDS011;2289;48.316;15.174;2024-01-07T00:22:07;2.67;;;2.47;;
4553;SDS011;2289;48.316;15.174;2024-01-07T00:24:36;2.83;;;2.33;;
4553;SDS011;2289;48.316;15.174;2024-01-07T00:27:06;3.27;;;2.40;;
4553;SDS011;2289;48.316;15.174;2024-01-07T00:29:36;3.37;;;3.07;;
4553;SDS011;2289;48.316;15.174;2024-01-07T00:32:05;1.90;;;1.80;;
4553;SDS011;2289;48.316;15.174;2024-01-07T00:34:33;2.47;;;2.37;;
4553;SDS011;2289;48.316;15.174;2024-01-07T00:37:04;1.80;;;1.70;;
4553;SDS011;2289;48.316;15.174;2024-01-07T00:39:33;1.73;;;1.63;;
4553;SDS011;2289;48.316;15.174;2024-01-07T00:42:02;2.27;;;1.90;;
4553;SDS011;2289;48.316;15.174;2024-01-07T00:44:32;1.87;;;1.77;;
4553;SDS011;2289;48.316;15.174;2024-01-07T00:47:00;1.60;;;1.50;;
4553;SDS011;2289;48.316;15.174;2024-01-07T00:49:28;2.00;;;1.90;;
4553;SDS011;2289;48.316;15.174;2024-01-07T00:51:57;2.00;;;1.60;;
4553;SDS011;2289;48.316;15.174;2024-01-07T00:54:28;1.80;;;1.70;;
4553;SDS011;2289;48.316;15.174;2024-01-07T00:56:59;2.10;;;1.90;;
4553;SDS011;2289;48.316;15.174;2024-01-07T00:59:29;2.17;;;2.03;;
4553;SDS011;2289;48.316;15.174;2024-01-07T01:01:58;1.77;;;1.67;;
4553;SDS011;2289;48.316;15.174;2024-01-07T01:04:27;2.00;;;1.90;;
4553;SDS011;2289;48.316;15.174;2024-01-07T01:06:56;2.23;;;1.90;;
4553;SDS011;2289;48.316;15.174;2024-01-07T01:09:28;2.07;;;1.97;;
4553;SDS011;2289;48.316;15.174;2024-01-07T01:11:59;2.20;;;1.63;;
4553;SDS011;2289;48.316;15.174;2024-01-07T01:14:28;1.80;;;1.70;;
4553;SDS011;2289;48.316;15.174;2024-01-07T01:16:57;2.57;;;2.37;;
4553;SDS011;2289;48.316;15.174;2024-01-07T01:19:26;4.20;;;2.40;;
4553;SDS011;2289;48.316;15.174;2024-01-07T01:21:55;2.70;;;2.50;;
4553;SDS011;2289;48.316;15.174;2024-01-07T01:24:24;2.70;;;2.50;;
4553;SDS011;2289;48.316;15.174;2024-01-07T01:26:54;2.50;;;2.30;;
4553;SDS011;2289;48.316;15.174;2024-01-07T01:29:23;3.77;;;3.40;;
4553;SDS011;2289;48.316;15.174;2024-01-07T01:31:52;3.07;;;2.87;;
4553;SDS011;2289;48.316;15.174;2024-01-07T01:34:21;2.47;;;2.27;;
4553;SDS011;2289;48.316;15.174;2024-01-07T01:36:50;3.30;;;3.00;;
4553;SDS011;2289;48.316;15.174;2024-01-07T01:39:19;3.03;;;2.83;;
4553;SDS011;2289;48.316;15.174;2024-01-07T01:41:48;2.77;;;2.57;;
4553;SDS011;2289;48.316;15.174;2024-01-07T01:44:19;2.47;;;2.27;;
4553;SDS011;2289;48.316;15.174;2024-01-07T01:46:47;3.20;;;3.00;;
4553;SDS011;2289;48.316;15.174;2024-01-07T01:49:17;2.53;;;2.33;;
4553;SDS011;2289;48.316;15.174;2024-01-07T01:51:46;2.67;;;2.47;;
4553;SDS011;2289;48.316;15.174;2024-01-07T01:54:16;3.33;;;3.03;;
4553;SDS011;2289;48.316;15.174;2024-01-07T01:56:46;3.00;;;2.70;;
4553;SDS011;2289;48.316;15.174;2024-01-07T01:59:15;4.00;;;3.33;;
4553;SDS011;2289;48.316;15.174;2024-01-07T02:01:45;4.63;;;3.93;;
4553;SDS011;2289;48.316;15.174;2024-01-07T02:04:14;2.83;;;2.60;;
4553;SDS011;2289;48.316;15.174;2024-01-07T02:06:44;3.67;;;2.90;;
4553;SDS011;2289;48.316;15.174;2024-01-07T02:09:14;3.60;;;3.40;;
4553;SDS011;2289;48.316;15.174;2024-01-07T02:11:43;3.53;;;3.03;;
4553;SDS011;2289;48.316;15.174;2024-01-07T02:14:11;2.70;;;2.50;;
4553;SDS011;2289;48.316;15.174;2024-01-07T02:16:40;3.20;;;3.00;;
4553;SDS011;2289;48.316;15.174;2024-01-07T02:19:10;3.93;;;3.63;;
4553;SDS011;2289;48.316;15.174;2024-01-07T02:21:40;3.90;;;3.07;;
4553;SDS011;2289;48.316;15.174;2024-01-07T02:24:15;3.07;;;2.80;;
4553;SDS011;2289;48.316;15.174;2024-01-07T02:26:45;2.97;;;2.77;;
4553;SDS011;2289;48.316;15.174;2024-01-07T02:29:13;2.60;;;2.43;;
4553;SDS011;2289;48.316;15.174;2024-01-07T02:31:42;3.60;;;2.90;;
4553;SDS011;2289;48.316;15.174;2024-01-07T02:34:10;2.93;;;2.73;;
4553;SDS011;2289;48.316;15.174;2024-01-07T02:36:39;2.33;;;2.23;;
4553;SDS011;2289;48.316;15.174;2024-01-07T02:39:08;3.47;;;3.17;;
4553;SDS011;2289;48.316;15.174;2024-01-07T02:41:38;3.17;;;2.90;;
4553;SDS011;2289;48.316;15.174;2024-01-07T02:44:06;3.13;;;2.40;;
4553;SDS011;2289;48.316;15.174;2024-01-07T02:46:39;2.70;;;2.50;;
4553;SDS011;2289;48.316;15.174;2024-01-07T02:49:07;2.43;;;2.23;;
4553;SDS011;2289;48.316;15.174;2024-01-07T02:51:36;2.70;;;2.47;;
4553;SDS011;2289;48.316;15.174;2024-01-07T02:54:05;2.33;;;2.10;;
4553;SDS011;2289;48.316;15.174;2024-01-07T02:56:35;2.73;;;2.53;;
4553;SDS011;2289;48.316;15.174;2024-01-07T02:59:05;2.47;;;2.27;;
4553;SDS011;2289;48.316;15.174;2024-01-07T03:01:34;2.90;;;2.70;;
4553;SDS011;2289;48.316;15.174;2024-01-07T03:04:08;2.10;;;2.00;;
4553;SDS011;2289;48.316;15.174;2024-01-07T03:06:38;2.90;;;2.70;;
4553;SDS011;2289;48.316;15.174;2024-01-07T03:09:07;2.60;;;2.40;;
4553;SDS011;2289;48.316;15.174;2024-01-07T03:11:38;3.00;;;2.63;;
4553;SDS011;2289;48.316;15.174;2024-01-07T03:14:09;3.00;;;2.80;;
4553;SDS011;2289;48.316;15.174;2024-01-07T03:16:38;3.03;;;2.80;;
4553;SDS011;2289;48.316;15.174;2024-01-07T03:19:07;3.77;;;3.47;;
4553;SDS011;2289;48.316;15.174;2024-01-07T03:21:36;3.47;;;2.90;;
4553;SDS011;2289;48.316;15.174;2024-01-07T03:24:05;4.30;;;3.90;;
4553;SDS011;2289;48.316;15.174;2024-01-07T03:26:34;3.57;;;3.33;;
4553;SDS011;2289;48.316;15.174;2024-01-07T03:29:03;4.20;;;3.80;;
4553;SDS011;2289;48.316;15.174;2024-01-07T03:31:33;4.30;;;3.87;;
4553;SDS011;2289;48.316;15.174;2024-01-07T03:34:02;3.90;;;3.27;;
4553;SDS011;2289;48.316;15.174;2024-01-07T03:36:32;4.80;;;3.83;;
4553;SDS011;2289;48.316;15.174;2024-01-07T03:39:01;4.10;;;3.70;;
4553;SDS011;2289;48.316;15.174;2024-01-07T03:41:30;3.70;;;3.40;;
4553;SDS011;2289;48.316;15.174;2024-01-07T03:44:02;3.20;;;2.77;;
4553;SDS011;2289;48.316;15.174;2024-01-07T03:46:31;3.70;;;3.40;;
4553;SDS011;2289;48.316;15.174;2024-01-07T03:49:01;3.93;;;3.53;;
4553;SDS011;2289;48.316;15.174;2024-01-07T03:51:30;3.80;;;3.50;;
4553;SDS011;2289;48.316;15.174;2024-01-07T03:53:58;3.70;;;3.40;;
4553;SDS011;2289;48.316;15.174;2024-01-07T03:56:27;3.00;;;2.73;;
4553;SDS011;2289;48.316;15.174;2024-01-07T03:58:56;3.93;;;3.63;;
4553;SDS011;2289;48.316;15.174;2024-01-07T04:01:25;3.37;;;3.13;;
4553;SDS011;2289;48.316;15.174;2024-01-07T04:03:58;3.37;;;2.90;;
4553;SDS011;2289;48.316;15.174;2024-01-07T04:06:29;4.37;;;4.03;;
4553;SDS011;2289;48.316;15.174;2024-01-07T04:08:57;3.47;;;3.27;;
4553;SDS011;2289;48.316;15.174;2024-01-07T04:11:25;3.40;;;3.10;;
4553;SDS011;2289;48.316;15.174;2024-01-07T04:13:54;3.70;;;3.40;;
4553;SDS011;2289;48.316;15.174;2024-01-07T04:16:23;3.77;;;3.40;;
4553;SDS011;2289;48.316;15.174;2024-01-07T04:18:52;5.70;;;3.77;;
4553;SDS011;2289;48.316;15.174;2024-01-07T04:21:22;3.83;;;3.53;;
4553;SDS011;2289;48.316;15.174;2024-01-07T04:23:51;4.73;;;3.80;;
4553;SDS011;2289;48.316;15.174;2024-01-07T04:26:20;4.90;;;4.40;;
4553;SDS011;2289;48.316;15.174;2024-01-07T04:28:49;4.27;;;3.87;;
4553;SDS011;2289;48.316;15.174;2024-01-07T04:31:17;4.60;;;4.30;;
4553;SDS011;2289;48.316;15.174;2024-01-07T04:33:46;4.40;;;4.00;;
4553;SDS011;2289;48.316;15.174;2024-01-07T04:36:15;6.03;;;5.43;;
4553;SDS011;2289;48.316;15.174;2024-01-07T04:38:45;6.73;;;5.30;;
4553;SDS011;2289;48.316;15.174;2024-01-07T04:41:14;6.07;;;4.90;;
4553;SDS011;2289;48.316;15.174;2024-01-07T04:43:43;6.70;;;5.43;;
4553;SDS011;2289;48.316;15.174;2024-01-07T04:46:13;6.67;;;6.07;;
4553;SDS011;2289;48.316;15.174;2024-01-07T04:48:42;5.50;;;4.60;;
4553;SDS011;2289;48.316;15.174;2024-01-07T04:51:11;5.33;;;4.60;;
4553;SDS011;2289;48.316;15.174;2024-01-07T04:53:40;6.30;;;5.10;;
4553;SDS011;2289;48.316;15.174;2024-01-07T04:56:09;4.90;;;4.50;;
4553;SDS011;2289;48.316;15.174;2024-01-07T04:58:39;5.07;;;4.67;;
4553;SDS011;2289;48.316;15.174;2024-01-07T05:01:08;4.33;;;3.93;;
4553;SDS011;2289;48.316;15.174;2024-01-07T05:03:38;3.83;;;3.53;;
4553;SDS011;2289;48.316;15.174;2024-01-07T05:06:08;4.70;;;4.30;;
4553;SDS011;2289;48.316;15.174;2024-01-07T05:08:36;4.27;;;3.87;;
4553;SDS011;2289;48.316;15.174;2024-01-07T05:11:05;4.37;;;3.40;;
4553;SDS011;2289;48.316;15.174;2024-01-07T05:13:35;4.97;;;4.47;;
4553;SDS011;2289;48.316;15.174;2024-01-07T05:16:03;5.67;;;4.70;;
4553;SDS011;2289;48.316;15.174;2024-01-07T05:18:32;6.53;;;5.10;;
4553;SDS011;2289;48.316;15.174;2024-01-07T05:21:02;12.60;;;8.83;;
4553;SDS011;2289;48.316;15.174;2024-01-07T05:23:34;10.27;;;6.73;;
4553;SDS011;2289;48.316;15.174;2024-01-07T05:26:02;8.17;;;6.27;;
4553;SDS011;2289;48.316;15.174;2024-01-07T05:28:31;6.80;;;4.70;;
4553;SDS011;2289;48.316;15.174;2024-01-07T05:31:01;6.53;;;5.60;;
4553;SDS011;2289;48.316;15.174;2024-01-07T05:33:30;5.13;;;4.07;;
4553;SDS011;2289;48.316;15.174;2024-01-07T05:35:59;5.70;;;4.67;;
4553;SDS011;2289;48.316;15.174;2024-01-07T05:38:28;5.57;;;5.07;;
4553;SDS011;2289;48.316;15.174;2024-01-07T05:40:58;5.63;;;4.13;;
4553;SDS011;2289;48.316;15.174;2024-01-07T05:43:27;4.10;;;3.70;;
4553;SDS011;2289;48.316;15.174;2024-01-07T05:45:55;5.50;;;4.80;;
4553;SDS011;2289;48.316;15.174;2024-01-07T05:48:25;4.27;;;3.70;;
4553;SDS011;2289;48.316;15.174;2024-01-07T05:50:54;5.03;;;4.33;;
4553;SDS011;2289;48.316;15.174;2024-01-07T05:53:23;4.07;;;3.77;;
4553;SDS011;2289;48.316;15.174;2024-01-07T05:55:51;4.67;;;4.17;;
4553;SDS011;2289;48.316;15.174;2024-01-07T05:58:20;4.60;;;3.70;;
4553;SDS011;2289;48.316;15.174;2024-01-07T06:00:48;4.80;;;3.87;;
4553;SDS011;2289;48.316;15.174;2024-01-07T06:03:17;4.83;;;3.53;;
4553;SDS011;2289;48.316;15.174;2024-01-07T06:05:47;4.40;;;3.97;;
4553;SDS011;2289;48.316;15.174;2024-01-07T06:08:16;4.70;;;4.10;;
4553;SDS011;2289;48.316;15.174;2024-01-07T06:10:44;5.47;;;3.80;;
4553;SDS011;2289;48.316;15.174;2024-01-07T06:13:12;6.27;;;4.07;;
4553;SDS011;2289;48.316;15.174;2024-01-07T06:15:41;5.20;;;4.70;;
4553;SDS011;2289;48.316;15.174;2024-01-07T06:18:09;5.30;;;4.13;;
4553;SDS011;2289;48.316;15.174;2024-01-07T06:20:38;4.47;;;3.60;;
4553;SDS011;2289;48.316;15.174;2024-01-07T06:23:08;5.83;;;4.17;;
4553;SDS011;2289;48.316;15.174;2024-01-07T06:25:37;3.80;;;3.30;;
4553;SDS011;2289;48.316;15.174;2024-01-07T06:28:07;15.13;;;5.37;;
4553;SDS011;2289;48.316;15.174;2024-01-07T06:30:38;5.00;;;4.50;;
4553;SDS011;2289;48.316;15.174;2024-01-07T06:33:09;4.53;;;3.80;;
4553;SDS011;2289;48.316;15.174;2024-01-07T06:35:39;7.93;;;4.40;;
4553;SDS011;2289;48.316;15.174;2024-01-07T06:38:10;5.10;;;4.13;;
4553;SDS011;2289;48.316;15.174;2024-01-07T06:40:39;6.57;;;4.70;;
4553;SDS011;2289;48.316;15.174;2024-01-07T06:43:08;6.40;;;4.13;;
4553;SDS011;2289;48.316;15.174;2024-01-07T06:45:38;3.93;;;3.60;;
4553;SDS011;2289;48.316;15.174;2024-01-07T06:48:07;3.60;;;3.30;;
4553;SDS011;2289;48.316;15.174;2024-01-07T06:50:36;4.00;;;2.87;;
4553;SDS011;2289;48.316;15.174;2024-01-07T06:53:05;4.40;;;3.27;;
4553;SDS011;2289;48.316;15.174;2024-01-07T06:55:34;5.00;;;3.50;;
4553;SDS011;2289;48.316;15.174;2024-01-07T06:58:03;5.47;;;3.70;;
4553;SDS011;2289;48.316;15.174;2024-01-07T07:00:32;3.90;;;3.50;;
4553;SDS011;2289;48.316;15.174;2024-01-07T07:03:00;5.80;;;4.40;;
4553;SDS011;2289;48.316;15.174;2024-01-07T07:05:29;3.20;;;2.90;;
4553;SDS011;2289;48.316;15.174;2024-01-07T07:07:58;3.93;;;3.30;;
4553;SDS011;2289;48.316;15.174;2024-01-07T07:10:26;3.43;;;3.13;;
4553;SDS011;2289;48.316;15.174;2024-01-07T07:12:57;3.57;;;3.27;;
4553;SDS011;2289;48.316;15.174;2024-01-07T07:15:26;5.23;;;3.20;;
4553;SDS011;2289;48.316;15.174;2024-01-07T07:17:55;4.37;;;3.43;;
4553;SDS011;2289;48.316;15.174;2024-01-07T07:20:24;5.80;;;3.67;;
4553;SDS011;2289;48.316;15.174;2024-01-07T07:22:52;3.93;;;3.53;;
4553;SDS011;2289;48.316;15.174;2024-01-07T07:25:21;3.77;;;3.00;;
4553;SDS011;2289;48.316;15.174;2024-01-07T07:27:50;5.33;;;3.20;;
4553;SDS011;2289;48.316;15.174;2024-01-07T07:30:20;5.90;;;4.13;;
4553;SDS011;2289;48.316;15.174;2024-01-07T07:32:48;3.10;;;2.90;;
4553;SDS011;2289;48.316;15.174;2024-01-07T07:35:17;4.40;;;3.40;;
4553;SDS011;2289;48.316;15.174;2024-01-07T07:37:45;7.97;;;4.33;;
4553;SDS011;2289;48.316;15.174;2024-01-07T07:40:14;4.50;;;4.03;;
4553;SDS011;2289;48.316;15.174;2024-01-07T07:42:43;4.27;;;3.13;;
4553;SDS011;2289;48.316;15.174;2024-01-07T07:45:11;4.37;;;4.00;;
4553;SDS011;2289;48.316;15.174;2024-01-07T07:47:43;4.20;;;3.80;;
4553;SDS011;2289;48.316;15.174;2024-01-07T07:50:12;4.57;;;3.27;;
4553;SDS011;2289;48.316;15.174;2024-01-07T07:52:41;4.40;;;3.70;;
4553;SDS011;2289;48.316;15.174;2024-01-07T07:55:11;4.03;;;3.30;;
4553;SDS011;2289;48.316;15.174;2024-01-07T07:57:39;3.50;;;3.10;;
4553;SDS011;2289;48.316;15.174;2024-01-07T08:00:09;4.03;;;3.00;;
4553;SDS011;2289;48.316;15.174;2024-01-07T08:02:39;4.93;;;3.20;;
4553;SDS011;2289;48.316;15.174;2024-01-07T08:05:09;5.63;;;4.33;;
4553;SDS011;2289;48.316;15.174;2024-01-07T08:07:38;6.57;;;3.90;;
4553;SDS011;2289;48.316;15.174;2024-01-07T08:10:07;5.30;;;3.20;;
4553;SDS011;2289;48.316;15.174;2024-01-07T08:12:36;9.50;;;7.03;;
4553;SDS011;2289;48.316;15.174;2024-01-07T08:15:05;10.73;;;7.20;;
4553;SDS011;2289;48.316;15.174;2024-01-07T08:17:39;7.67;;;5.53;;
4553;SDS011;2289;48.316;15.174;2024-01-07T08:20:10;7.03;;;4.77;;
4553;SDS011;2289;48.316;15.174;2024-01-07T08:22:40;6.50;;;5.20;;
4553;SDS011;2289;48.316;15.174;2024-01-07T08:25:08;4.67;;;4.03;;
4553;SDS011;2289;48.316;15.174;2024-01-07T08:27:37;6.13;;;4.40;;
4553;SDS011;2289;48.316;15.174;2024-01-07T08:30:10;4.67;;;3.73;;
4553;SDS011;2289;48.316;15.174;2024-01-07T08:32:40;4.87;;;3.67;;
4553;SDS011;2289;48.316;15.174;2024-01-07T08:35:10;4.40;;;3.70;;
4553;SDS011;2289;48.316;15.174;2024-01-07T08:37:41;4.43;;;3.70;;
4553;SDS011;2289;48.316;15.174;2024-01-07T08:40:11;4.73;;;3.63;;
4553;SDS011;2289;48.316;15.174;2024-01-07T08:42:40;4.60;;;3.20;;
4553;SDS011;2289;48.316;15.174;2024-01-07T08:45:09;4.13;;;3.43;;
4553;SDS011;2289;48.316;15.174;2024-01-07T08:47:39;5.23;;;4.30;;
4553;SDS011;2289;48.316;15.174;2024-01-07T08:50:12;4.23;;;3.83;;
4553;SDS011;2289;48.316;15.174;2024-01-07T08:52:42;4.30;;;2.77;;
4553;SDS011;2289;48.316;15.174;2024-01-07T08:55:10;2.80;;;2.53;;
4553;SDS011;2289;48.316;15.174;2024-01-07T08:57:39;3.33;;;3.03;;
4553;SDS011;2289;48.316;15.174;2024-01-07T09:00:09;4.00;;;3.53;;
4553;SDS011;2289;48.316;15.174;2024-01-07T09:02:38;4.40;;;3.53;;
4553;SDS011;2289;48.316;15.174;2024-01-07T09:05:10;6.10;;;3.80;;
4553;SDS011;2289;48.316;15.174;2024-01-07T09:07:40;9.53;;;6.67;;
4553;SDS011;2289;48.316;15.174;2024-01-07T09:10:10;8.50;;;7.43;;
4553;SDS011;2289;48.316;15.174;2024-01-07T09:12:40;12.47;;;11.27;;
4553;SDS011;2289;48.316;15.174;2024-01-07T09:15:09;7.23;;;6.40;;
4553;SDS011;2289;48.316;15.174;2024-01-07T09:17:38;6.43;;;4.70;;
4553;SDS011;2289;48.316;15.174;2024-01-07T09:20:07;3.90;;;3.50;;
4553;SDS011;2289;48.316;15.174;2024-01-07T09:22:36;3.20;;;2.90;;
4553;SDS011;2289;48.316;15.174;2024-01-07T09:25:07;4.27;;;3.87;;
4553;SDS011;2289;48.316;15.174;2024-01-07T09:27:36;4.00;;;3.60;;
4553;SDS011;2289;48.316;15.174;2024-01-07T09:30:05;5.93;;;3.50;;
4553;SDS011;2289;48.316;15.174;2024-01-07T09:32:38;5.57;;;4.30;;
4553;SDS011;2289;48.316;15.174;2024-01-07T09:35:06;3.70;;;3.20;;
4553;SDS011;2289;48.316;15.174;2024-01-07T09:37:35;4.90;;;3.90;;
4553;SDS011;2289;48.316;15.174;2024-01-07T09:40:04;6.07;;;4.20;;
4553;SDS011;2289;48.316;15.174;2024-01-07T09:42:35;9.00;;;5.57;;
4553;SDS011;2289;48.316;15.174;2024-01-07T09:45:04;5.03;;;4.53;;
4553;SDS011;2289;48.316;15.174;2024-01-07T09:47:34;8.13;;;5.47;;
4553;SDS011;2289;48.316;15.174;2024-01-07T09:50:04;4.90;;;4.43;;
4553;SDS011;2289;48.316;15.174;2024-01-07T09:52:34;3.40;;;3.10;;
4553;SDS011;2289;48.316;15.174;2024-01-07T09:55:03;4.17;;;3.77;;
4553;SDS011;2289;48.316;15.174;2024-01-07T09:57:34;9.67;;;3.67;;
4553;SDS011;2289;48.316;15.174;2024-01-07T10:00:06;3.93;;;3.43;;
4553;SDS011;2289;48.316;15.174;2024-01-07T10:02:35;4.40;;;3.60;;
4553;SDS011;2289;48.316;15.174;2024-01-07T10:05:04;9.30;;;3.50;;
4553;SDS011;2289;48.316;15.174;2024-01-07T10:07:33;3.80;;;3.33;;
4553;SDS011;2289;48.316;15.174;2024-01-07T10:10:09;7.03;;;4.00;;
4553;SDS011;2289;48.316;15.174;2024-01-07T10:12:42;3.77;;;3.03;;
4553;SDS011;2289;48.316;15.174;2024-01-07T10:15:12;5.60;;;4.07;;
4553;SDS011;2289;48.316;15.174;2024-01-07T10:17:41;4.63;;;3.53;;
4553;SDS011;2289;48.316;15.174;2024-01-07T10:20:11;6.60;;;4.70;;
4553;SDS011;2289;48.316;15.174;2024-01-07T10:22:40;8.50;;;4.83;;
4553;SDS011;2289;48.316;15.174;2024-01-07T10:25:09;7.17;;;4.80;;
4553;SDS011;2289;48.316;15.174;2024-01-07T10:27:37;9.60;;;5.50;;
4553;SDS011;2289;48.316;15.174;2024-01-07T10:30:08;9.40;;;5.27;;
4553;SDS011;2289;48.316;15.174;2024-01-07T10:32:37;5.23;;;3.60;;
4553;SDS011;2289;48.316;15.174;2024-01-07T10:35:11;14.10;;;8.60;;
4553;SDS011;2289;48.316;15.174;2024-01-07T10:37:42;12.00;;;7.27;;
4553;SDS011;2289;48.316;15.174;2024-01-07T10:40:12;9.07;;;6.17;;
4553;SDS011;2289;48.316;15.174;2024-01-07T10:42:41;14.13;;;9.10;;
4553;SDS011;2289;48.316;15.174;2024-01-07T10:45:13;8.40;;;5.20;;
4553;SDS011;2289;48.316;15.174;2024-01-07T10:47:41;5.27;;;4.17;;
4553;SDS011;2289;48.316;15.174;2024-01-07T10:50:13;6.67;;;4.13;;
4553;SDS011;2289;48.316;15.174;2024-01-07T10:52:42;5.80;;;3.90;;
4553;SDS011;2289;48.316;15.174;2024-01-07T10:55:11;6.20;;;4.73;;
4553;SDS011;2289;48.316;15.174;2024-01-07T10:57:42;5.10;;;4.60;;
4553;SDS011;2289;48.316;15.174;2024-01-07T11:00:14;6.07;;;4.33;;
4553;SDS011;2289;48.316;15.174;2024-01-07T11:02:57;4.07;;;3.63;;
4553;SDS011;2289;48.316;15.174;2024-01-07T11:05:38;5.13;;;3.87;;
4553;SDS011;2289;48.316;15.174;2024-01-07T11:08:13;4.37;;;4.00;;
4553;SDS011;2289;48.316;15.174;2024-01-07T11:10:48;8.50;;;6.30;;
4553;SDS011;2289;48.316;15.174;2024-01-07T11:13:32;6.57;;;4.53;;
4553;SDS011;2289;48.316;15.174;2024-01-07T11:16:07;11.20;;;8.00;;
4553;SDS011;2289;48.316;15.174;2024-01-07T11:18:39;7.63;;;5.47;;
4553;SDS011;2289;48.316;15.174;2024-01-07T11:21:08;7.73;;;5.60;;
4553;SDS011;2289;48.316;15.174;2024-01-07T11:23:37;5.83;;;4.83;;
4553;SDS011;2289;48.316;15.174;2024-01-07T11:26:13;5.93;;;4.90;;
4553;SDS011;2289;48.316;15.174;2024-01-07T11:28:42;8.80;;;4.50;;
4553;SDS011;2289;48.316;15.174;2024-01-07T11:31:12;7.40;;;5.10;;
4553;SDS011;2289;48.316;15.174;2024-01-07T11:33:42;5.63;;;4.80;;
4553;SDS011;2289;48.316;15.174;2024-01-07T11:36:12;7.97;;;4.90;;
4553;SDS011;2289;48.316;15.174;2024-01-07T11:38:43;7.40;;;4.43;;
4553;SDS011;2289;48.316;15.174;2024-01-07T11:41:13;5.77;;;4.10;;
4553;SDS011;2289;48.316;15.174;2024-01-07T11:43:52;7.73;;;4.80;;
4553;SDS011;2289;48.316;15.174;2024-01-07T11:46:23;5.30;;;4.80;;
4553;SDS011;2289;48.316;15.174;2024-01-07T11:48:52;6.23;;;5.37;;
4553;SDS011;2289;48.316;15.174;2024-01-07T11:51:25;9.33;;;5.37;;
4553;SDS011;2289;48.316;15.174;2024-01-07T11:53:54;6.00;;;5.40;;
4553;SDS011;2289;48.316;15.174;2024-01-07T11:56:23;5.10;;;4.60;;
4553;SDS011;2289;48.316;15.174;2024-01-07T11:58:53;5.70;;;4.30;;
4553;SDS011;2289;48.316;15.174;2024-01-07T12:01:24;9.03;;;4.70;;
4553;SDS011;2289;48.316;15.174;2024-01-07T12:03:54;4.33;;;3.53;;
4553;SDS011;2289;48.316;15.174;2024-01-07T12:06:23;15.57;;;9.47;;
4553;SDS011;2289;48.316;15.174;2024-01-07T12:08:52;6.50;;;5.50;;
4553;SDS011;2289;48.316;15.174;2024-01-07T12:11:20;7.03;;;5.83;;
4553;SDS011;2289;48.316;15.174;2024-01-07T12:13:50;7.07;;;5.83;;
4553;SDS011;2289;48.316;15.174;2024-01-07T12:16:19;6.17;;;4.23;;
4553;SDS011;2289;48.316;15.174;2024-01-07T12:18:49;10.40;;;4.20;;
4553;SDS011;2289;48.316;15.174;2024-01-07T12:21:18;8.50;;;5.43;;
4553;SDS011;2289;48.316;15.174;2024-01-07T12:23:49;5.67;;;4.47;;
4553;SDS011;2289;48.316;15.174;2024-01-07T12:26:19;9.33;;;4.23;;
4553;SDS011;2289;48.316;15.174;2024-01-07T12:28:52;4.73;;;3.87;;
4553;SDS011;2289;48.316;15.174;2024-01-07T12:31:23;7.30;;;4.70;;
4553;SDS011;2289;48.316;15.174;2024-01-07T12:33:53;6.53;;;4.80;;
4553;SDS011;2289;48.316;15.174;2024-01-07T12:36:23;4.60;;;4.10;;
4553;SDS011;2289;48.316;15.174;2024-01-07T12:38:52;10.90;;;4.20;;
4553;SDS011;2289;48.316;15.174;2024-01-07T12:41:21;5.07;;;4.57;;
4553;SDS011;2289;48.316;15.174;2024-01-07T12:43:51;5.70;;;4.40;;
4553;SDS011;2289;48.316;15.174;2024-01-07T12:46:19;8.37;;;5.13;;
4553;SDS011;2289;48.316;15.174;2024-01-07T12:48:49;6.63;;;4.73;;
4553;SDS011;2289;48.316;15.174;2024-01-07T12:51:19;5.10;;;4.33;;
4553;SDS011;2289;48.316;15.174;2024-01-07T12:53:50;7.83;;;4.73;;
4553;SDS011;2289;48.316;15.174;2024-01-07T12:56:18;5.63;;;5.00;;
4553;SDS011;2289;48.316;15.174;2024-01-07T12:58:48;4.63;;;4.20;;
4553;SDS011;2289;48.316;15.174;2024-01-07T13:01:17;6.57;;;4.57;;
4553;SDS011;2289;48.316;15.174;2024-01-07T13:03:45;5.00;;;3.93;;
4553;SDS011;2289;48.316;15.174;2024-01-07T13:06:16;7.50;;;4.70;;
4553;SDS011;2289;48.316;15.174;2024-01-07T13:08:46;5.00;;;4.30;;
4553;SDS011;2289;48.316;15.174;2024-01-07T13:11:15;5.57;;;5.07;;
4553;SDS011;2289;48.316;15.174;2024-01-07T13:13:44;8.00;;;5.30;;
4553;SDS011;2289;48.316;15.174;2024-01-07T13:16:15;5.37;;;4.87;;
4553;SDS011;2289;48.316;15.174;2024-01-07T13:18:45;5.83;;;4.40;;
4553;SDS011;2289;48.316;15.174;2024-01-07T13:21:14;6.27;;;4.80;;
4553;SDS011;2289;48.316;15.174;2024-01-07T13:23:42;7.30;;;3.93;;
4553;SDS011;2289;48.316;15.174;2024-01-07T13:26:12;6.40;;;4.80;;
4553;SDS011;2289;48.316;15.174;2024-01-07T13:28:41;6.30;;;5.00;;
4553;SDS011;2289;48.316;15.174;2024-01-07T13:31:10;5.10;;;4.53;;
4553;SDS011;2289;48.316;15.174;2024-01-07T13:33:40;7.43;;;5.30;;
4553;SDS011;2289;48.316;15.174;2024-01-07T13:36:09;6.73;;;5.03;;
4553;SDS011;2289;48.316;15.174;2024-01-07T13:38:39;4.87;;;4.40;;
4553;SDS011;2289;48.316;15.174;2024-01-07T13:41:13;8.07;;;5.10;;
4553;SDS011;2289;48.316;15.174;2024-01-07T13:43:42;7.03;;;4.80;;
4553;SDS011;2289;48.316;15.174;2024-01-07T13:46:11;5.07;;;4.17;;
4553;SDS011;2289;48.316;15.174;2024-01-07T13:48:39;8.00;;;4.53;;
4553;SDS011;2289;48.316;15.174;2024-01-07T13:51:10;8.80;;;5.50;;
4553;SDS011;2289;48.316;15.174;2024-01-07T13:53:40;5.13;;;3.97;;
4553;SDS011;2289;48.316;15.174;2024-01-07T13:56:09;5.60;;;4.40;;
4553;SDS011;2289;48.316;15.174;2024-01-07T13:58:40;5.00;;;4.00;;
4553;SDS011;2289;48.316;15.174;2024-01-07T14:01:11;6.43;;;5.27;;
4553;SDS011;2289;48.316;15.174;2024-01-07T14:03:40;4.43;;;4.00;;
4553;SDS011;2289;48.316;15.174;2024-01-07T14:06:09;7.47;;;4.90;;
4553;SDS011;2289;48.316;15.174;2024-01-07T14:08:39;6.80;;;4.40;;
4553;SDS011;2289;48.316;15.174;2024-01-07T14:11:07;4.90;;;4.10;;
4553;SDS011;2289;48.316;15.174;2024-01-07T14:13:36;6.20;;;4.07;;
4553;SDS011;2289;48.316;15.174;2024-01-07T14:16:06;6.20;;;3.83;;
4553;SDS011;2289;48.316;15.174;2024-01-07T14:18:34;5.40;;;4.10;;
4553;SDS011;2289;48.316;15.174;2024-01-07T14:21:03;5.33;;;3.93;;
4553;SDS011;2289;48.316;15.174;2024-01-07T14:23:32;6.37;;;4.37;;
4553;SDS011;2289;48.316;15.174;2024-01-07T14:26:04;4.70;;;4.30;;
4553;SDS011;2289;48.316;15.174;2024-01-07T14:28:32;6.57;;;4.70;;
4553;SDS011;2289;48.316;15.174;2024-01-07T14:31:02;4.90;;;4.40;;
4553;SDS011;2289;48.316;15.174;2024-01-07T14:33:35;5.83;;;5.20;;
4553;SDS011;2289;48.316;15.174;2024-01-07T14:36:04;4.37;;;4.00;;
4553;SDS011;2289;48.316;15.174;2024-01-07T14:38:33;9.00;;;6.23;;
4553;SDS011;2289;48.316;15.174;2024-01-07T14:41:01;7.43;;;5.10;;
4553;SDS011;2289;48.316;15.174;2024-01-07T14:43:30;5.93;;;5.03;;
4553;SDS011;2289;48.316;15.174;2024-01-07T14:45:59;10.40;;;6.13;;
4553;SDS011;2289;48.316;15.174;2024-01-07T14:48:29;5.40;;;4.90;;
4553;SDS011;2289;48.316;15.174;2024-01-07T14:50:59;7.30;;;6.20;;
4553;SDS011;2289;48.316;15.174;2024-01-07T14:53:28;5.57;;;5.07;;
4553;SDS011;2289;48.316;15.174;2024-01-07T14:55:56;15.77;;;8.57;;
4553;SDS011;2289;48.316;15.174;2024-01-07T14:58:25;11.47;;;9.30;;
4553;SDS011;2289;48.316;15.174;2024-01-07T15:00:56;6.67;;;5.27;;
4553;SDS011;2289;48.316;15.174;2024-01-07T15:03:26;7.97;;;5.70;;
4553;SDS011;2289;48.316;15.174;2024-01-07T15:05:56;6.80;;;5.17;;
4553;SDS011;2289;48.316;15.174;2024-01-07T15:08:27;6.27;;;5.67;;
4553;SDS011;2289;48.316;15.174;2024-01-07T15:10:56;6.00;;;5.40;;
4553;SDS011;2289;48.316;15.174;2024-01-07T15:13:24;6.60;;;4.70;;
4553;SDS011;2289;48.316;15.174;2024-01-07T15:15:54;11.10;;;4.87;;